createdAt,value
2023-03-19T00:01:05.705Z,44.83
2023-03-19T00:03:35.287Z,44.82
2023-03-19T00:06:04.106Z,44.84
2023-03-19T00:08:32.076Z,44.83
2023-03-19T00:11:07.229Z,44.85
2023-03-19T00:13:35.974Z,44.86
2023-03-19T00:16:05.018Z,44.90
2023-03-19T00:18:33.522Z,44.91
2023-03-19T00:21:01.698Z,44.94
2023-03-19T00:23:29.901Z,44.95
2023-03-19T00:25:57.771Z,44.92
2023-03-19T00:28:26.666Z,44.96
2023-03-19T00:30:55.989Z,44.99
2023-03-19T00:33:24.224Z,45.01
2023-03-19T00:35:52.368Z,45.03
2023-03-19T00:38:20.765Z,45.03
2023-03-19T00:40:48.663Z,45.05
2023-03-19T00:43:16.838Z,45.07
2023-03-19T00:45:45.163Z,45.10
2023-03-19T00:48:14.000Z,45.09
2023-03-19T00:50:41.974Z,45.12
2023-03-19T00:53:10.440Z,45.14
2023-03-19T00:55:38.726Z,45.15
2023-03-19T00:58:06.947Z,45.15
2023-03-19T01:00:37.583Z,45.15
2023-03-19T01:03:06.716Z,45.15
2023-03-19T01:08:04.818Z,45.16
2023-03-19T01:10:35.239Z,45.15
2023-03-19T01:13:04.984Z,45.19
2023-03-19T01:15:39.994Z,45.21
2023-03-19T01:18:09.130Z,45.25
2023-03-19T01:20:39.372Z,45.20
2023-03-19T01:23:08.810Z,45.24
2023-03-19T01:25:39.703Z,45.26
2023-03-19T01:28:08.001Z,45.25
2023-03-19T01:30:37.343Z,45.29
2023-03-19T01:33:08.227Z,45.27
2023-03-19T01:35:37.122Z,45.27
2023-03-19T01:38:05.945Z,45.30
2023-03-19T01:40:34.522Z,45.32
2023-03-19T01:43:19.651Z,45.28
2023-03-19T01:45:51.439Z,45.36
2023-03-19T01:48:27.692Z,45.37
2023-03-19T01:50:58.253Z,45.36
2023-03-19T01:53:31.947Z,45.37
2023-03-19T01:56:07.209Z,45.38
2023-03-19T01:58:36.960Z,45.41
2023-03-19T02:01:06.215Z,45.41
2023-03-19T02:03:36.490Z,45.42
2023-03-19T02:06:05.275Z,45.43
2023-03-19T02:08:35.939Z,45.47
2023-03-19T02:11:05.698Z,45.43
2023-03-19T02:13:35.197Z,45.44
2023-03-19T02:16:04.417Z,45.49
2023-03-19T02:18:33.442Z,45.44
2023-03-19T02:21:17.666Z,45.48
2023-03-19T02:23:50.003Z,45.49
2023-03-19T02:26:21.847Z,45.47
2023-03-19T02:28:52.325Z,45.50
2023-03-19T02:31:22.646Z,45.52
2023-03-19T02:34:02.421Z,45.47
2023-03-19T02:36:39.167Z,45.46
2023-03-19T02:39:13.419Z,45.50
2023-03-19T02:41:43.061Z,45.56
2023-03-19T02:44:12.905Z,45.55
2023-03-19T02:46:41.670Z,45.59
2023-03-19T02:49:10.093Z,45.58
2023-03-19T02:51:38.976Z,45.59
2023-03-19T02:54:07.837Z,45.65
2023-03-19T02:56:35.988Z,45.68
2023-03-19T02:59:04.624Z,45.65
2023-03-19T03:01:32.846Z,45.66
2023-03-19T03:04:00.802Z,45.68
2023-03-19T03:06:28.827Z,45.71
2023-03-19T03:08:57.566Z,45.71
2023-03-19T03:11:26.371Z,45.70
2023-03-19T03:13:54.269Z,45.72
2023-03-19T03:16:22.935Z,45.69
2023-03-19T03:18:51.446Z,45.74
2023-03-19T03:21:21.625Z,45.78
2023-03-19T03:23:50.239Z,45.77
2023-03-19T03:26:18.355Z,45.81
2023-03-19T03:28:46.708Z,45.78
2023-03-19T03:31:15.062Z,45.79
2023-03-19T03:33:43.864Z,45.84
2023-03-19T03:36:12.468Z,45.85
2023-03-19T03:38:41.697Z,45.87
2023-03-19T03:41:09.695Z,45.87
2023-03-19T03:43:37.591Z,45.88
2023-03-19T03:46:06.150Z,45.87
2023-03-19T03:48:35.273Z,45.83
2023-03-19T03:51:04.578Z,45.88
2023-03-19T03:53:33.614Z,45.91
2023-03-19T03:56:02.530Z,45.91
2023-03-19T03:58:30.917Z,45.94
2023-03-19T04:00:59.587Z,45.95
2023-03-19T04:03:28.228Z,45.93
2023-03-19T04:05:56.809Z,45.97
2023-03-19T04:08:24.863Z,45.97
2023-03-19T04:10:52.981Z,45.98
2023-03-19T04:13:21.651Z,45.99
2023-03-19T04:15:49.744Z,45.99
2023-03-19T04:18:18.076Z,46.00
2023-03-19T04:20:46.517Z,45.99
2023-03-19T04:23:14.406Z,46.00
2023-03-19T04:25:42.865Z,46.01
2023-03-19T04:28:10.853Z,45.97
2023-03-19T04:30:39.576Z,45.98
2023-03-19T04:33:08.182Z,46.01
2023-03-19T04:35:36.488Z,46.02
2023-03-19T04:38:05.590Z,46.00
2023-03-19T04:40:34.598Z,45.99
2023-03-19T04:43:02.975Z,45.99
2023-03-19T04:45:34.428Z,45.97
2023-03-19T04:48:02.583Z,45.99
2023-03-19T04:50:30.878Z,46.02
2023-03-19T04:52:59.969Z,46.02
2023-03-19T04:55:28.250Z,45.95
2023-03-19T04:57:56.821Z,45.97
2023-03-19T05:00:28.635Z,45.99
2023-03-19T05:02:57.905Z,45.98
2023-03-19T05:05:26.466Z,45.97
2023-03-19T05:07:54.826Z,45.95
2023-03-19T05:10:22.827Z,45.89
2023-03-19T05:12:51.294Z,45.88
2023-03-19T05:15:19.480Z,45.88
2023-03-19T05:17:50.044Z,45.89
2023-03-19T05:20:19.672Z,45.87
2023-03-19T05:22:53.648Z,45.83
2023-03-19T05:25:22.402Z,45.85
2023-03-19T05:27:50.396Z,45.83
2023-03-19T05:30:19.234Z,45.80
2023-03-19T05:32:49.275Z,45.73
2023-03-19T05:35:19.639Z,45.74
2023-03-19T05:37:48.283Z,45.74
2023-03-19T05:40:16.748Z,45.74
2023-03-19T05:42:44.896Z,45.70
2023-03-19T05:45:14.227Z,45.66
2023-03-19T05:47:43.192Z,45.62
2023-03-19T05:50:14.132Z,45.55
2023-03-19T05:52:44.473Z,45.51
2023-03-19T05:55:12.622Z,45.48
2023-03-19T05:57:41.314Z,45.41
2023-03-19T06:00:11.356Z,45.32
2023-03-19T06:02:41.777Z,45.24
2023-03-19T06:05:12.236Z,45.25
2023-03-19T06:07:40.460Z,45.22
2023-03-19T06:10:09.539Z,45.19
2023-03-19T06:12:38.114Z,45.18
2023-03-19T06:15:07.654Z,45.20
2023-03-19T06:17:39.277Z,45.21
2023-03-19T06:20:07.966Z,45.20
2023-03-19T06:22:36.328Z,45.20
2023-03-19T06:25:06.804Z,45.21
2023-03-19T06:27:35.996Z,45.23
2023-03-19T06:30:09.178Z,45.26
2023-03-19T06:32:38.546Z,45.31
2023-03-19T06:35:08.823Z,45.36
2023-03-19T06:37:37.874Z,45.37
2023-03-19T06:40:06.501Z,45.41
2023-03-19T06:42:35.079Z,45.50
2023-03-19T06:45:03.662Z,45.59
2023-03-19T06:47:31.668Z,45.63
2023-03-19T06:50:01.090Z,45.67
2023-03-19T06:52:29.075Z,45.70
2023-03-19T06:54:56.945Z,45.70
2023-03-19T06:57:25.153Z,45.73
2023-03-19T06:59:53.552Z,45.79
2023-03-19T07:02:22.341Z,45.75
2023-03-19T07:04:50.995Z,45.74
2023-03-19T07:07:19.397Z,45.73
2023-03-19T07:09:47.238Z,45.75
2023-03-19T07:12:15.921Z,45.74
2023-03-19T07:14:43.999Z,45.73
2023-03-19T07:17:11.771Z,45.68
2023-03-19T07:19:39.944Z,45.67
2023-03-19T07:22:07.815Z,45.64
2023-03-19T07:24:36.468Z,45.52
2023-03-19T07:27:05.044Z,45.53
2023-03-19T07:29:33.087Z,45.49
2023-03-19T07:32:01.212Z,45.49
2023-03-19T07:34:31.711Z,45.49
2023-03-19T07:36:59.545Z,45.41
2023-03-19T07:39:27.792Z,45.47
2023-03-19T07:41:56.147Z,45.46
2023-03-19T07:44:24.336Z,45.46
2023-03-19T07:46:52.365Z,45.42
2023-03-19T07:49:20.588Z,45.37
2023-03-19T07:51:48.996Z,45.29
2023-03-19T07:54:17.091Z,45.25
2023-03-19T07:56:45.476Z,45.34
2023-03-19T07:59:13.329Z,45.24
2023-03-19T08:01:41.507Z,45.23
2023-03-19T08:04:09.907Z,45.10
2023-03-19T08:06:38.687Z,44.88
2023-03-19T08:09:07.072Z,44.88
2023-03-19T08:11:35.912Z,44.75
2023-03-19T08:14:04.158Z,44.78
2023-03-19T08:16:32.298Z,44.88
2023-03-19T08:19:00.648Z,44.93
2023-03-19T08:21:29.905Z,44.94
2023-03-19T08:23:57.888Z,44.89
2023-03-19T08:26:26.440Z,44.79
2023-03-19T08:28:55.355Z,44.67
2023-03-19T08:31:23.409Z,44.51
2023-03-19T08:33:51.819Z,44.26
2023-03-19T08:36:19.776Z,43.94
2023-03-19T08:38:47.951Z,42.83
2023-03-19T08:41:16.579Z,40.64
2023-03-19T08:43:44.703Z,38.88
2023-03-19T08:46:16.568Z,37.12
2023-03-19T08:48:45.109Z,35.18
2023-03-19T08:51:13.929Z,34.05
2023-03-19T08:53:41.814Z,33.03
2023-03-19T09:11:37.091Z,28.00
2023-03-19T09:14:05.911Z,28.00
2023-03-19T09:16:36.653Z,28.05
2023-03-19T09:19:06.365Z,27.61
2023-03-19T09:21:34.571Z,27.36
2023-03-19T09:24:02.671Z,27.13
2023-03-19T09:26:31.296Z,27.00
2023-03-19T09:28:59.841Z,26.51
2023-03-19T09:31:29.661Z,26.55
2023-03-19T09:34:01.841Z,26.39
2023-03-19T09:36:29.710Z,26.33
2023-03-19T09:38:57.596Z,25.97
2023-03-19T09:41:31.574Z,25.86
2023-03-19T09:44:03.290Z,25.85
2023-03-19T09:46:51.571Z,25.77
2023-03-19T09:49:32.843Z,25.72
2023-03-19T09:52:28.542Z,25.59
2023-03-19T09:54:59.171Z,22.37
2023-03-19T09:57:29.935Z,20.96
2023-03-19T09:59:57.748Z,20.22
2023-03-19T10:02:42.536Z,20.27
2023-03-19T10:05:25.926Z,20.20
2023-03-19T10:08:11.666Z,20.60
2023-03-19T10:11:16.528Z,20.88
2023-03-19T10:14:07.490Z,21.13
2023-03-19T10:16:40.211Z,21.47
2023-03-19T10:19:12.976Z,22.83
2023-03-19T10:21:58.489Z,23.47
2023-03-19T10:24:40.554Z,23.68
2023-03-19T10:27:19.564Z,24.75
2023-03-19T10:29:48.288Z,25.16
2023-03-19T10:32:34.901Z,25.43
2023-03-19T10:35:13.141Z,25.23
2023-03-19T10:37:41.438Z,24.55
2023-03-19T10:40:22.144Z,24.11
2023-03-19T10:43:13.665Z,23.82
2023-03-19T10:45:41.996Z,24.29
2023-03-19T10:48:15.609Z,25.01
2023-03-19T10:50:51.254Z,25.17
2023-03-19T10:53:19.326Z,25.44
2023-03-19T10:56:07.729Z,24.67
2023-03-19T10:58:37.588Z,24.36
2023-03-19T11:01:12.188Z,24.81
2023-03-19T11:04:00.694Z,25.00
2023-03-19T11:06:33.482Z,25.31
2023-03-19T11:09:03.704Z,25.55
2023-03-19T11:11:36.842Z,25.82
2023-03-19T11:14:17.313Z,25.66
2023-03-19T11:17:02.802Z,25.80
2023-03-19T11:19:39.189Z,25.45
2023-03-19T11:22:07.679Z,25.76
2023-03-19T11:24:40.894Z,26.30
2023-03-19T11:27:11.922Z,26.23
2023-03-19T11:29:43.776Z,25.92
2023-03-19T11:32:57.504Z,25.68
2023-03-19T11:35:31.522Z,25.43
2023-03-19T11:38:02.557Z,25.61
2023-03-19T11:40:37.593Z,25.59
2023-03-19T11:43:42.925Z,25.66
2023-03-19T11:46:14.331Z,26.21
2023-03-19T11:49:15.825Z,26.41
2023-03-19T11:51:51.762Z,26.08
2023-03-19T11:54:25.536Z,26.68
2023-03-19T11:57:04.644Z,26.83
2023-03-19T11:59:56.495Z,26.77
2023-03-19T12:02:51.763Z,26.83
2023-03-19T12:05:36.815Z,26.41
2023-03-19T12:08:13.561Z,26.12
2023-03-19T12:10:54.226Z,26.20
2023-03-19T12:13:51.431Z,26.82
2023-03-19T12:16:57.342Z,26.17
2023-03-19T12:19:50.919Z,25.48
2023-03-19T12:22:31.663Z,24.86
2023-03-19T12:25:37.145Z,25.16
2023-03-19T12:28:12.580Z,25.55
2023-03-19T12:30:45.447Z,25.63
2023-03-19T12:33:38.466Z,25.40
2023-03-19T12:36:12.382Z,25.79
2023-03-19T12:38:48.451Z,25.77
2023-03-19T12:41:24.405Z,25.58
2023-03-19T12:44:06.435Z,25.52
2023-03-19T12:46:38.975Z,25.51
2023-03-19T12:49:25.850Z,26.19
2023-03-19T12:51:59.921Z,26.07
2023-03-19T12:54:34.793Z,26.69
2023-03-19T12:57:17.600Z,26.61
2023-03-19T12:59:55.767Z,26.78
2023-03-19T13:02:51.002Z,26.33
2023-03-19T13:05:28.868Z,26.43
2023-03-19T13:08:13.593Z,26.52
2023-03-19T13:10:41.723Z,25.88
2023-03-19T13:13:38.752Z,25.67
2023-03-19T13:16:25.730Z,25.98
2023-03-19T13:19:05.739Z,25.80
2023-03-19T13:21:37.801Z,26.08
2023-03-19T13:24:24.617Z,26.41
2023-03-19T13:26:55.136Z,26.36
2023-03-19T13:29:28.113Z,26.71
2023-03-19T13:32:06.697Z,26.88
2023-03-19T13:34:37.174Z,27.36
2023-03-19T13:37:26.901Z,26.95
2023-03-19T13:39:55.855Z,26.89
2023-03-19T13:42:43.863Z,26.81
2023-03-19T13:45:34.698Z,26.87
2023-03-19T13:48:33.390Z,27.35
2023-03-19T13:51:03.732Z,26.93
2023-03-19T13:53:36.975Z,27.08
2023-03-19T13:56:22.496Z,26.90
2023-03-19T13:59:15.236Z,27.28
2023-03-19T14:01:45.055Z,27.37
2023-03-19T14:04:36.886Z,27.13
2023-03-19T14:07:42.722Z,26.48
2023-03-19T14:10:20.529Z,26.15
2023-03-19T14:12:50.064Z,26.68
2023-03-19T14:15:28.192Z,26.78
2023-03-19T14:17:58.900Z,26.94
2023-03-19T14:20:39.787Z,26.75
2023-03-19T14:23:08.888Z,27.44
2023-03-19T14:25:58.539Z,26.80
2023-03-19T14:28:45.663Z,26.86
2023-03-19T14:31:26.509Z,27.12
2023-03-19T14:34:19.570Z,27.11
2023-03-19T14:37:18.620Z,27.23
2023-03-19T14:39:52.941Z,27.56
2023-03-19T14:42:43.472Z,27.39
2023-03-19T14:45:36.765Z,27.45
2023-03-19T14:48:39.307Z,27.34
2023-03-19T14:51:32.015Z,27.13
2023-03-19T14:54:12.700Z,27.37
2023-03-19T14:56:40.810Z,27.40
2023-03-19T14:59:13.825Z,27.08
2023-03-19T15:01:48.263Z,26.85
2023-03-19T15:04:18.410Z,27.02
2023-03-19T15:06:59.334Z,27.01
2023-03-19T15:09:32.448Z,27.42
2023-03-19T15:12:22.473Z,26.98
2023-03-19T15:15:12.704Z,26.68
2023-03-19T15:17:41.686Z,26.89
2023-03-19T15:20:18.898Z,27.05
2023-03-19T15:22:59.785Z,27.19
2023-03-19T15:25:28.585Z,27.41
2023-03-19T15:28:09.068Z,27.28
2023-03-19T15:30:52.273Z,27.22
2023-03-19T15:33:39.847Z,27.15
2023-03-19T15:36:24.842Z,27.13
2023-03-19T15:39:21.349Z,27.17
2023-03-19T15:41:52.081Z,27.53
2023-03-19T15:44:30.659Z,27.88
2023-03-19T15:47:03.304Z,28.01
2023-03-19T15:49:52.755Z,28.43
2023-03-19T15:52:21.846Z,27.87
2023-03-19T15:54:50.037Z,28.40
2023-03-19T15:57:18.402Z,28.33
2023-03-19T15:59:47.381Z,28.62
2023-03-19T16:02:41.216Z,28.83
2023-03-19T16:05:31.085Z,29.23
2023-03-19T16:08:03.236Z,29.00
2023-03-19T16:10:40.587Z,29.44
2023-03-19T16:13:39.594Z,29.37
2023-03-19T16:16:18.643Z,29.93
2023-03-19T16:18:53.234Z,30.22
2023-03-19T16:21:29.684Z,30.61
2023-03-19T16:24:02.094Z,31.00
2023-03-19T16:26:33.543Z,31.17
2023-03-19T16:29:24.441Z,31.36
2023-03-19T16:31:59.693Z,31.89
2023-03-19T16:34:48.475Z,32.21
2023-03-19T16:37:33.176Z,32.53
2023-03-19T16:40:13.104Z,32.92
2023-03-19T16:42:44.160Z,33.25
2023-03-19T16:45:15.617Z,33.52
2023-03-19T16:47:46.756Z,33.77
2023-03-19T16:50:35.305Z,34.00
2023-03-19T16:53:11.161Z,34.09
2023-03-19T16:55:39.968Z,34.25
2023-03-19T16:58:14.264Z,34.44
2023-03-19T17:00:44.389Z,34.78
2023-03-19T17:03:16.107Z,34.95
2023-03-19T17:05:45.969Z,35.08
2023-03-19T17:08:15.003Z,35.28
2023-03-19T17:10:49.477Z,35.37
2023-03-19T17:13:28.692Z,35.61
2023-03-19T17:16:04.855Z,35.87
2023-03-19T17:18:40.529Z,36.08
2023-03-19T17:21:21.573Z,36.23
2023-03-19T17:23:50.739Z,36.33
2023-03-19T17:26:25.959Z,36.49
2023-03-19T17:28:56.276Z,36.57
2023-03-19T17:31:30.583Z,36.66
2023-03-19T17:34:02.678Z,36.75
2023-03-19T17:36:31.951Z,36.97
2023-03-19T17:39:01.089Z,37.06
2023-03-19T17:41:32.912Z,37.25
2023-03-19T17:44:03.739Z,37.37
2023-03-19T17:46:39.839Z,37.50
2023-03-19T17:49:20.417Z,37.66
2023-03-19T17:51:49.522Z,37.72
2023-03-19T17:54:18.329Z,37.88
2023-03-19T17:56:46.850Z,38.00
2023-03-19T17:59:15.445Z,38.17
2023-03-19T18:01:47.311Z,38.26
2023-03-19T18:04:21.067Z,38.35
2023-03-19T18:06:54.167Z,38.51
2023-03-19T18:09:27.027Z,38.63
2023-03-19T18:11:55.647Z,38.74
2023-03-19T18:14:24.357Z,38.87
2023-03-19T18:16:52.694Z,38.96
2023-03-19T18:19:30.365Z,39.11
2023-03-19T18:21:59.312Z,39.19
2023-03-19T18:24:27.897Z,39.34
2023-03-19T18:26:55.852Z,39.44
2023-03-19T18:29:24.417Z,39.53
2023-03-19T18:31:53.218Z,39.62
2023-03-19T18:34:22.076Z,39.70
2023-03-19T18:36:50.337Z,39.79
2023-03-19T18:39:18.576Z,39.84
2023-03-19T18:41:47.434Z,39.97
2023-03-19T18:44:16.761Z,40.06
2023-03-19T18:46:45.401Z,40.16
2023-03-19T18:49:23.813Z,40.24
2023-03-19T18:52:08.985Z,40.32
2023-03-19T18:54:37.172Z,40.39
2023-03-19T18:57:06.519Z,40.47
2023-03-19T18:59:34.766Z,40.56
2023-03-19T19:02:30.256Z,40.61
2023-03-19T19:04:58.812Z,40.67
2023-03-19T19:07:27.086Z,40.74
2023-03-19T19:09:55.645Z,40.81
2023-03-19T19:12:26.623Z,40.85
2023-03-19T19:14:55.749Z,40.93
2023-03-19T19:17:24.755Z,41.01
2023-03-19T19:19:53.593Z,41.08
2023-03-19T19:22:21.895Z,41.13
2023-03-19T19:24:50.512Z,41.19
2023-03-19T19:27:21.745Z,41.25
2023-03-19T19:29:50.795Z,41.32
2023-03-19T19:32:26.661Z,41.38
2023-03-19T19:34:56.052Z,41.43
2023-03-19T19:37:25.787Z,41.51
2023-03-19T19:39:54.082Z,41.55
2023-03-19T19:42:23.528Z,41.60
2023-03-19T19:44:55.039Z,41.66
2023-03-19T19:47:23.273Z,41.72
2023-03-19T19:49:51.923Z,41.76
2023-03-19T19:52:20.912Z,41.82
2023-03-19T19:54:51.981Z,41.87
2023-03-19T19:57:24.888Z,41.91
2023-03-19T19:59:54.463Z,41.98
2023-03-19T20:02:31.585Z,42.02
2023-03-19T20:05:00.115Z,42.06
2023-03-19T20:07:28.277Z,42.14
2023-03-19T20:09:56.705Z,42.18
2023-03-19T20:12:30.834Z,42.23
2023-03-19T20:15:02.039Z,42.27
2023-03-19T20:17:30.865Z,42.31
2023-03-19T20:19:59.356Z,42.35
2023-03-19T20:22:27.566Z,42.42
2023-03-19T20:24:56.071Z,42.46
2023-03-19T20:27:32.419Z,42.51
2023-03-19T20:30:01.011Z,42.58
2023-03-19T20:32:33.177Z,42.62
2023-03-19T20:35:02.741Z,42.65
2023-03-19T20:37:31.298Z,42.70
2023-03-19T20:39:59.180Z,42.73
2023-03-19T20:42:30.399Z,42.80
2023-03-19T20:44:59.819Z,42.80
2023-03-19T20:47:29.194Z,42.86
2023-03-19T20:49:57.248Z,42.91
2023-03-19T20:52:26.040Z,42.94
2023-03-19T20:54:55.513Z,42.98
2023-03-19T20:57:29.318Z,43.03
2023-03-19T21:00:10.662Z,43.07
2023-03-19T21:02:39.511Z,43.09
2023-03-19T21:05:12.938Z,43.13
2023-03-19T21:07:43.231Z,43.16
2023-03-19T21:10:37.639Z,43.21
2023-03-19T21:13:06.618Z,43.23
2023-03-19T21:15:35.551Z,43.26
2023-03-19T21:18:04.045Z,43.31
2023-03-19T21:20:33.467Z,43.33
2023-03-19T21:23:04.236Z,43.38
2023-03-19T21:25:33.279Z,43.41
2023-03-19T21:28:06.375Z,43.44
2023-03-19T21:30:43.587Z,43.46
2023-03-19T21:33:25.716Z,43.49
2023-03-19T21:35:54.873Z,43.51
2023-03-19T21:38:23.997Z,43.55
2023-03-19T21:40:56.254Z,43.58
2023-03-19T21:43:35.889Z,43.58
2023-03-19T21:46:17.388Z,43.65
2023-03-19T21:48:51.883Z,43.66
2023-03-19T21:51:19.892Z,43.69
2023-03-19T21:53:48.104Z,43.74
2023-03-19T21:56:23.400Z,43.77
2023-03-19T21:58:52.936Z,43.82
2023-03-19T22:01:24.615Z,43.85
2023-03-19T22:03:55.533Z,43.87
2023-03-19T22:06:24.373Z,43.91
2023-03-19T22:08:55.739Z,43.92
2023-03-19T22:11:29.600Z,43.95
2023-03-19T22:14:07.711Z,43.96
2023-03-19T22:16:35.945Z,43.97
2023-03-19T22:19:04.524Z,44.02
2023-03-19T22:21:34.408Z,44.05
2023-03-19T22:24:02.496Z,44.09
2023-03-19T22:26:39.928Z,44.13
2023-03-19T22:29:22.839Z,44.14
2023-03-19T22:31:55.827Z,44.18
2023-03-19T22:34:25.899Z,44.21
2023-03-19T22:36:54.223Z,44.26
2023-03-19T22:39:22.192Z,44.28
2023-03-19T22:41:51.008Z,44.31
2023-03-19T22:44:31.030Z,44.35
2023-03-19T22:47:01.097Z,44.35
2023-03-19T22:49:30.054Z,44.39
2023-03-19T22:51:58.562Z,44.42
2023-03-19T22:54:26.767Z,44.46
2023-03-19T22:56:54.985Z,44.47
2023-03-19T22:59:23.157Z,44.49
2023-03-19T23:01:51.084Z,44.54
2023-03-19T23:04:30.258Z,44.55
2023-03-19T23:07:00.518Z,44.60
2023-03-19T23:09:32.300Z,44.62
2023-03-19T23:12:02.365Z,44.64
2023-03-19T23:14:31.574Z,44.66
2023-03-19T23:17:07.444Z,44.71
2023-03-19T23:19:37.475Z,44.74
2023-03-19T23:22:07.285Z,44.76
2023-03-19T23:24:35.643Z,44.76
2023-03-19T23:27:04.340Z,44.80
2023-03-19T23:29:36.913Z,44.82
2023-03-19T23:32:05.990Z,44.85
2023-03-19T23:34:42.311Z,44.87
2023-03-19T23:37:11.033Z,44.90
2023-03-19T23:39:42.489Z,44.95
2023-03-19T23:42:27.822Z,44.98
2023-03-19T23:44:59.520Z,44.97
2023-03-19T23:47:29.697Z,45.01
2023-03-19T23:49:57.928Z,45.04
2023-03-19T23:52:25.934Z,45.06
2023-03-19T23:54:54.103Z,45.08
2023-03-19T23:57:24.154Z,45.09
2023-03-19T23:59:52.443Z,45.15
